createdAt,value
2017-12-05T00:00:09.133Z,-2.5
2017-12-05T00:01:19.113Z,-2.51
2017-12-05T00:02:28.560Z,-2.52
2017-12-05T00:03:38.544Z,-2.51
2017-12-05T00:04:48.525Z,-2.57
2017-12-05T00:05:58.501Z,-2.54
2017-12-05T00:07:08.486Z,-2.54
2017-12-05T00:08:17.937Z,-2.48
2017-12-05T00:09:27.655Z,-2.52
2017-12-05T00:10:37.637Z,-2.51
2017-12-05T00:11:47.618Z,-2.52
2017-12-05T00:12:57.618Z,-2.51
2017-12-05T00:14:07.597Z,-2.65
2017-12-05T00:15:17.589Z,-2.65
2017-12-05T00:16:27.304Z,-2.61
2017-12-05T00:17:37.026Z,-2.68
2017-12-05T00:18:47.013Z,-2.66
2017-12-05T00:19:56.724Z,-2.75
2017-12-05T00:21:06.704Z,-2.89
2017-12-05T00:22:16.425Z,-2.84
2017-12-05T00:23:26.411Z,-2.94
2017-12-05T00:24:36.393Z,-2.9
2017-12-05T00:25:46.115Z,-2.84
2017-12-05T00:26:56.101Z,-2.84
2017-12-05T00:28:05.816Z,-2.91
2017-12-05T00:29:15.534Z,-2.98
2017-12-05T00:30:25.512Z,-2.99
2017-12-05T00:31:35.498Z,-2.99
2017-12-05T00:32:45.497Z,-3.05
2017-12-05T00:33:55.212Z,-3.09
2017-12-05T00:35:04.929Z,-3.11
2017-12-05T00:36:14.909Z,-3.11
2017-12-05T00:37:24.891Z,-3.08
2017-12-05T00:38:34.872Z,-3.05
2017-12-05T00:39:44.589Z,-3.11
2017-12-05T00:40:54.038Z,-3.08
2017-12-05T00:42:03.759Z,-3.14
2017-12-05T00:43:13.740Z,-3.07
2017-12-05T00:44:23.720Z,-3.14
2017-12-05T00:45:33.700Z,-3.14
2017-12-05T00:46:43.686Z,-3.01
2017-12-05T00:47:53.728Z,-3.08
2017-12-05T00:49:03.724Z,-3.11
2017-12-05T00:50:13.703Z,-3.08
2017-12-05T00:51:23.419Z,-3.07
2017-12-05T00:52:33.404Z,-2.96
2017-12-05T00:53:43.129Z,-2.96
2017-12-05T00:54:53.126Z,-2.94
2017-12-05T00:56:02.846Z,-2.87
2017-12-05T00:57:12.566Z,-2.73
2017-12-05T00:58:22.550Z,-2.83
2017-12-05T00:59:32.266Z,-2.7
2017-12-05T01:00:42.258Z,-2.65
2017-12-05T01:01:52.243Z,-2.62
2017-12-05T01:03:02.232Z,-2.57
2017-12-05T01:04:12.211Z,-2.52
2017-12-05T01:05:22.189Z,-2.55
2017-12-05T01:06:31.911Z,-2.47
2017-12-05T01:07:41.892Z,-2.52
2017-12-05T01:08:51.869Z,-2.52
2017-12-05T01:10:01.848Z,-2.57
2017-12-05T01:11:11.829Z,-2.66
2017-12-05T01:12:21.814Z,-2.65
2017-12-05T01:13:31.798Z,-2.75
2017-12-05T01:14:41.786Z,-2.78
2017-12-05T01:15:51.768Z,-2.8
2017-12-05T01:17:01.758Z,-2.89
2017-12-05T01:18:10.942Z,-2.87
2017-12-05T01:19:20.929Z,-2.8
2017-12-05T01:20:30.920Z,-2.84
2017-12-05T01:21:40.906Z,-2.9
2017-12-05T01:22:50.914Z,-2.84
2017-12-05T01:24:00.964Z,-2.89
2017-12-05T01:25:10.956Z,-2.89
2017-12-05T01:26:20.672Z,-2.91
2017-12-05T01:27:30.403Z,-2.91
2017-12-05T01:28:40.145Z,-3.01
2017-12-05T01:29:49.859Z,-3.01
2017-12-05T01:30:59.572Z,-2.99
2017-12-05T01:32:09.293Z,-2.93
2017-12-05T01:33:19.281Z,-2.9
2017-12-05T01:34:29.276Z,-2.87
2017-12-05T01:35:38.728Z,-2.72
2017-12-05T01:36:48.714Z,-2.62
2017-12-05T01:37:58.430Z,-2.66
2017-12-05T01:39:08.413Z,-2.65
2017-12-05T01:40:18.424Z,-2.89
2017-12-05T01:41:28.410Z,-2.91
2017-12-05T01:42:38.394Z,-2.84
2017-12-05T01:43:48.111Z,-2.86
2017-12-05T01:44:57.823Z,-2.99
2017-12-05T01:46:07.808Z,-3.02
2017-12-05T01:47:17.788Z,-3.01
2017-12-05T01:48:27.775Z,-3.02
2017-12-05T01:49:37.811Z,-3.08
2017-12-05T01:50:47.797Z,-3.08
2017-12-05T01:51:57.777Z,-3.07
2017-12-05T01:53:07.497Z,-3.17
2017-12-05T01:54:17.483Z,-3.19
2017-12-05T01:55:27.199Z,-3.26
2017-12-05T01:56:37.176Z,-3.36
2017-12-05T01:57:46.891Z,-3.33
2017-12-05T01:58:56.884Z,-3.38
2017-12-05T02:00:06.873Z,-3.4
2017-12-05T02:01:16.858Z,-3.38
2017-12-05T02:02:26.315Z,-3.44
2017-12-05T02:03:36.350Z,-3.51
2017-12-05T02:04:46.341Z,-3.61
2017-12-05T02:05:56.324Z,-3.61
2017-12-05T02:07:06.037Z,-3.58
2017-12-05T02:08:16.023Z,-3.62
2017-12-05T02:09:26.060Z,-3.56
2017-12-05T02:10:35.775Z,-3.71
2017-12-05T02:11:45.756Z,-3.62
2017-12-05T02:12:55.748Z,-3.75
2017-12-05T02:14:05.729Z,-3.68
2017-12-05T02:15:15.454Z,-3.75
2017-12-05T02:16:25.170Z,-3.71
2017-12-05T02:17:35.160Z,-3.69
2017-12-05T02:18:45.144Z,-3.77
2017-12-05T02:19:55.187Z,-3.74
2017-12-05T02:21:05.171Z,-3.77
2017-12-05T02:22:15.156Z,-3.8
2017-12-05T02:23:25.148Z,-3.75
2017-12-05T02:24:34.864Z,-3.71
2017-12-05T02:25:44.849Z,-3.75
2017-12-05T02:26:54.830Z,-3.75
2017-12-05T02:28:04.286Z,-3.69
2017-12-05T02:29:14.274Z,-3.78
2017-12-05T02:30:24.261Z,-3.77
2017-12-05T02:31:34.262Z,-3.81
2017-12-05T02:32:43.987Z,-3.83
2017-12-05T02:33:53.984Z,-3.84
2017-12-05T02:35:03.978Z,-3.75
2017-12-05T02:36:13.974Z,-3.74
2017-12-05T02:37:23.956Z,-3.65
2017-12-05T02:38:33.677Z,-3.62
2017-12-05T02:39:43.671Z,-3.59
2017-12-05T02:40:53.653Z,-3.55
2017-12-05T02:42:03.640Z,-3.48
2017-12-05T02:43:13.399Z,-3.48
2017-12-05T02:44:23.380Z,-3.47
2017-12-05T02:45:33.374Z,-3.4
2017-12-05T02:46:43.090Z,-3.4
2017-12-05T02:47:52.807Z,-3.4
2017-12-05T02:49:02.785Z,-3.33
2017-12-05T02:50:12.779Z,-3.25
2017-12-05T02:51:22.777Z,-3.23
2017-12-05T02:52:32.770Z,-3.29
2017-12-05T02:53:42.486Z,-3.29
2017-12-05T02:54:52.206Z,-3.32
2017-12-05T02:56:02.197Z,-3.36
2017-12-05T02:57:12.191Z,-3.4
2017-12-05T02:58:22.169Z,-3.38
2017-12-05T02:59:32.153Z,-3.37
2017-12-05T03:00:42.129Z,-3.41
2017-12-05T03:01:52.113Z,-3.48
2017-12-05T03:03:01.829Z,-3.4
2017-12-05T03:04:11.862Z,-3.46
2017-12-05T03:05:21.842Z,-3.41
2017-12-05T03:06:31.822Z,-3.43
2017-12-05T03:07:41.841Z,-3.41
2017-12-05T03:08:51.822Z,-3.47
2017-12-05T03:10:03.537Z,-3.5
2017-12-05T03:11:12.986Z,-3.51
2017-12-05T03:12:22.966Z,-3.48
2017-12-05T03:13:32.957Z,-3.48
2017-12-05T03:14:42.936Z,-3.46
2017-12-05T03:15:52.917Z,-3.41
2017-12-05T03:17:02.910Z,-3.51
2017-12-05T03:18:12.359Z,-3.43
2017-12-05T03:19:22.344Z,-3.51
2017-12-05T03:20:32.329Z,-3.48
2017-12-05T03:21:42.306Z,-3.46
2017-12-05T03:22:52.332Z,-3.51
2017-12-05T03:24:02.311Z,-3.61
2017-12-05T03:25:12.287Z,-3.56
2017-12-05T03:26:22.272Z,-3.64
2017-12-05T03:27:32.252Z,-3.58
2017-12-05T03:28:41.964Z,-3.55
2017-12-05T03:29:51.681Z,-3.64
2017-12-05T03:31:01.672Z,-3.68
2017-12-05T03:32:11.686Z,-3.69
2017-12-05T03:33:21.665Z,-3.75
2017-12-05T03:34:31.418Z,-3.75
2017-12-05T03:35:41.134Z,-3.68
2017-12-05T03:36:50.861Z,-3.68
2017-12-05T03:38:00.840Z,-3.66
2017-12-05T03:39:10.563Z,-3.69
2017-12-05T03:40:20.288Z,-3.71
2017-12-05T03:41:30.283Z,-3.66
2017-12-05T03:42:40.261Z,-3.71
2017-12-05T03:43:49.716Z,-3.68
2017-12-05T03:44:59.695Z,-3.64
2017-12-05T03:46:09.676Z,-3.55
2017-12-05T03:47:19.397Z,-3.51
2017-12-05T03:48:29.374Z,-3.56
2017-12-05T03:49:39.364Z,-3.62
2017-12-05T03:50:49.076Z,-3.64
2017-12-05T03:51:59.053Z,-3.64
2017-12-05T03:53:09.050Z,-3.66
2017-12-05T03:54:19.085Z,-3.69
2017-12-05T03:55:28.538Z,-3.71
2017-12-05T03:56:38.516Z,-3.71
2017-12-05T03:57:48.504Z,-3.74
2017-12-05T03:58:58.228Z,-3.66
2017-12-05T04:00:07.939Z,-3.69
2017-12-05T04:04:29.422Z,-3.62
2017-12-05T04:05:39.163Z,-3.59
2017-12-05T04:06:49.145Z,-3.62
2017-12-05T04:07:59.121Z,-3.66
2017-12-05T04:09:09.109Z,-3.56
2017-12-05T04:10:18.833Z,-3.62
2017-12-05T04:11:28.813Z,-3.64
2017-12-05T04:12:38.529Z,-3.61
2017-12-05T04:13:48.245Z,-3.59
2017-12-05T04:14:57.964Z,-3.66
2017-12-05T04:16:07.948Z,-3.68
2017-12-05T04:17:17.930Z,-3.71
2017-12-05T04:18:27.910Z,-3.71
2017-12-05T04:19:37.625Z,-3.68
2017-12-05T04:20:47.338Z,-3.66
2017-12-05T04:21:57.322Z,-3.71
2017-12-05T04:23:07.307Z,-3.74
2017-12-05T04:24:17.292Z,-3.71
2017-12-05T04:25:27.017Z,-3.69
2017-12-05T04:26:36.731Z,-3.68
2017-12-05T04:27:46.441Z,-3.61
2017-12-05T04:28:56.427Z,-3.59
2017-12-05T04:30:05.613Z,-3.61
2017-12-05T04:31:15.328Z,-3.55
2017-12-05T04:32:25.304Z,-3.56
2017-12-05T04:33:35.020Z,-3.64
2017-12-05T04:34:45.005Z,-3.64
2017-12-05T04:35:54.987Z,-3.71
2017-12-05T04:37:04.987Z,-3.68
2017-12-05T04:38:14.960Z,-3.71
2017-12-05T04:39:24.948Z,-3.68
2017-12-05T04:40:34.939Z,-3.69
2017-12-05T04:41:44.663Z,-3.69
2017-12-05T04:42:54.641Z,-3.65
2017-12-05T04:44:04.622Z,-3.69
2017-12-05T04:45:14.335Z,-3.71
2017-12-05T04:46:24.315Z,-3.74
2017-12-05T04:47:34.297Z,-3.71
2017-12-05T04:48:44.277Z,-3.75
2017-12-05T04:49:54.272Z,-3.69
2017-12-05T04:51:04.277Z,-3.66
2017-12-05T04:52:13.994Z,-3.75
2017-12-05T04:53:23.975Z,-3.77
2017-12-05T04:54:33.694Z,-3.69
2017-12-05T04:55:43.672Z,-3.75
2017-12-05T04:56:53.652Z,-3.8
2017-12-05T04:58:03.645Z,-3.94
2017-12-05T04:59:13.368Z,-3.83
2017-12-05T05:00:23.345Z,-3.94
2017-12-05T05:01:33.330Z,-3.91
2017-12-05T05:02:43.312Z,-3.94
2017-12-05T05:03:53.025Z,-4.02
2017-12-05T05:05:02.744Z,-3.9
2017-12-05T05:06:12.219Z,-3.98
2017-12-05T05:07:21.920Z,-3.91
2017-12-05T05:08:31.902Z,-3.98
2017-12-05T05:09:41.889Z,-3.94
2017-12-05T05:10:51.609Z,-4.01
2017-12-05T05:12:01.589Z,-3.99
2017-12-05T05:13:11.664Z,-4.08
2017-12-05T05:14:21.386Z,-4.08
2017-12-05T05:15:31.368Z,-4.04
2017-12-05T05:16:41.393Z,-4.04
2017-12-05T05:17:51.374Z,-4.2
2017-12-05T05:19:01.146Z,-4.14
2017-12-05T05:20:11.120Z,-4.27
2017-12-05T05:21:21.104Z,-4.42
2017-12-05T05:22:30.818Z,-4.41
2017-12-05T05:23:40.808Z,-4.38
2017-12-05T05:24:50.520Z,-4.45
2017-12-05T05:26:00.500Z,-4.47
2017-12-05T05:27:10.480Z,-4.45
2017-12-05T05:28:20.462Z,-4.55
2017-12-05T05:29:30.452Z,-4.55
2017-12-05T05:30:40.442Z,-4.55
2017-12-05T05:31:50.154Z,-4.61
2017-12-05T05:33:00.130Z,-4.67
2017-12-05T05:34:10.115Z,-4.67
2017-12-05T05:35:19.563Z,-4.77
2017-12-05T05:36:29.282Z,-4.77
2017-12-05T05:37:38.734Z,-4.76
2017-12-05T05:38:48.713Z,-4.83
2017-12-05T05:39:58.695Z,-4.94
2017-12-05T05:41:08.413Z,-4.98
2017-12-05T05:42:18.138Z,-5.02
2017-12-05T05:43:28.115Z,-5.08
2017-12-05T05:44:38.095Z,-5.05
2017-12-05T05:45:47.808Z,-5.13
2017-12-05T05:46:57.787Z,-5.25
2017-12-05T05:48:07.766Z,-5.31
2017-12-05T05:49:17.484Z,-5.28
2017-12-05T05:50:27.470Z,-5.3
2017-12-05T05:51:37.451Z,-5.43
2017-12-05T05:52:47.427Z,-5.38
2017-12-05T05:53:57.412Z,-5.38
2017-12-05T05:55:06.861Z,-5.46
2017-12-05T05:56:16.579Z,-5.39
2017-12-05T05:57:26.556Z,-5.43
2017-12-05T05:58:36.540Z,-5.45
2017-12-05T05:59:46.306Z,-5.39
2017-12-05T06:00:56.283Z,-5.48
2017-12-05T06:02:05.734Z,-5.46
2017-12-05T06:03:15.446Z,-5.48
2017-12-05T06:04:25.167Z,-5.45
2017-12-05T06:05:37.155Z,-5.53
2017-12-05T06:06:47.134Z,-5.5
2017-12-05T06:07:56.585Z,-5.52
2017-12-05T06:09:06.310Z,-5.43
2017-12-05T06:10:16.299Z,-5.59
2017-12-05T06:11:26.327Z,-5.59
2017-12-05T06:12:35.775Z,-5.56
2017-12-05T06:13:45.491Z,-5.59
2017-12-05T06:14:55.511Z,-5.55
2017-12-05T06:16:05.498Z,-5.59
2017-12-05T06:17:15.525Z,-5.56
2017-12-05T06:18:25.514Z,-5.6
2017-12-05T06:19:35.229Z,-5.64
2017-12-05T06:20:44.972Z,-5.66
2017-12-05T06:21:54.950Z,-5.67
2017-12-05T06:23:04.932Z,-5.71
2017-12-05T06:24:14.646Z,-5.71
2017-12-05T06:25:24.630Z,-5.67
2017-12-05T06:26:34.611Z,-5.71
2017-12-05T06:27:44.587Z,-5.7
2017-12-05T06:28:54.572Z,-5.68
2017-12-05T06:30:04.550Z,-5.73
2017-12-05T06:31:13.996Z,-5.77
2017-12-05T06:32:23.716Z,-5.73
2017-12-05T06:33:33.692Z,-5.85
2017-12-05T06:34:43.681Z,-5.87
2017-12-05T06:35:53.732Z,-5.88
2017-12-05T06:37:03.713Z,-5.87
2017-12-05T06:38:13.699Z,-5.87
2017-12-05T06:39:23.703Z,-6
2017-12-05T06:40:33.689Z,-5.97
2017-12-05T06:41:43.676Z,-5.95
2017-12-05T06:42:53.410Z,-6.03
2017-12-05T06:44:03.390Z,-6.05
2017-12-05T06:45:13.101Z,-6.03
2017-12-05T06:46:22.819Z,-6.09
2017-12-05T06:47:32.266Z,-6.09
2017-12-05T06:48:42.256Z,-6.18
2017-12-05T06:49:52.237Z,-6.2
2017-12-05T06:51:02.209Z,-6.26
2017-12-05T06:52:11.921Z,-6.23
2017-12-05T06:53:21.912Z,-6.21
2017-12-05T06:54:31.885Z,-6.27
2017-12-05T06:55:41.861Z,-6.31
2017-12-05T06:56:51.305Z,-6.31
2017-12-05T06:58:01.016Z,-6.28
2017-12-05T06:59:10.464Z,-6.31
2017-12-05T07:00:20.446Z,-6.31
2017-12-05T07:01:30.429Z,-6.24
2017-12-05T07:02:40.414Z,-6.23
2017-12-05T07:03:50.133Z,-6.24
2017-12-05T07:05:00.109Z,-6.24
2017-12-05T07:06:10.156Z,-6.07
2017-12-05T07:07:19.868Z,-6.15
2017-12-05T07:08:29.845Z,-6.1
2017-12-05T07:09:39.557Z,-6.15
2017-12-05T07:10:49.535Z,-6.21
2017-12-05T07:11:59.247Z,-6.24
2017-12-05T07:13:08.691Z,-6.31
2017-12-05T07:14:18.667Z,-6.21
2017-12-05T07:15:28.382Z,-6.36
2017-12-05T07:16:38.372Z,-6.34
2017-12-05T07:17:48.091Z,-6.51
2017-12-05T07:18:57.806Z,-6.6
2017-12-05T07:20:07.786Z,-6.49
2017-12-05T07:21:17.763Z,-6.51
2017-12-05T07:22:27.746Z,-6.49
2017-12-05T07:23:37.724Z,-6.52
2017-12-05T07:24:47.434Z,-6.6
2017-12-05T07:25:57.417Z,-6.6
2017-12-05T07:27:07.394Z,-6.45
2017-12-05T07:28:17.107Z,-6.46
2017-12-05T07:29:27.091Z,-6.34
2017-12-05T07:30:37.069Z,-6.38
2017-12-05T07:31:46.515Z,-6.33
2017-12-05T07:32:56.545Z,-6.36
2017-12-05T07:34:06.527Z,-6.52
2017-12-05T07:35:16.505Z,-6.51
2017-12-05T07:36:26.484Z,-6.71
2017-12-05T07:37:36.464Z,-6.75
2017-12-05T07:38:46.183Z,-6.67
2017-12-05T07:39:56.170Z,-6.64
2017-12-05T07:41:06.179Z,-6.56
2017-12-05T07:42:16.156Z,-6.61
2017-12-05T07:43:26.188Z,-6.61
2017-12-05T07:44:36.169Z,-6.6
2017-12-05T07:45:46.161Z,-6.6
2017-12-05T07:46:56.140Z,-6.54
2017-12-05T07:48:06.116Z,-6.49
2017-12-05T07:49:15.829Z,-6.56
2017-12-05T07:50:25.542Z,-6.38
2017-12-05T07:51:35.519Z,-6.42
2017-12-05T07:52:45.229Z,-6.39
2017-12-05T07:53:54.945Z,-6.34
2017-12-05T07:55:04.922Z,-6.33
2017-12-05T07:56:14.633Z,-6.31
2017-12-05T07:57:24.638Z,-6.28
2017-12-05T07:58:34.363Z,-6.3
2017-12-05T07:59:44.341Z,-6.3
2017-12-05T08:00:54.112Z,-6.26
2017-12-05T08:02:04.104Z,-6.13
2017-12-05T08:03:14.077Z,-6.2
2017-12-05T08:04:24.126Z,-6.09
2017-12-05T08:05:34.105Z,-6
2017-12-05T08:06:43.816Z,-6
2017-12-05T08:07:53.793Z,-6
2017-12-05T08:09:03.769Z,-5.95
2017-12-05T08:10:12.949Z,-5.97
2017-12-05T08:11:22.928Z,-5.95
2017-12-05T08:12:32.912Z,-5.95
2017-12-05T08:13:42.888Z,-5.94
2017-12-05T08:14:52.603Z,-5.94
2017-12-05T08:16:02.316Z,-5.85
2017-12-05T08:17:12.308Z,-5.91
2017-12-05T08:18:22.345Z,-5.88
2017-12-05T08:19:32.342Z,-5.77
2017-12-05T08:20:42.320Z,-5.77
2017-12-05T08:21:52.301Z,-5.81
2017-12-05T08:23:02.276Z,-5.78
2017-12-05T08:24:12.254Z,-5.73
2017-12-05T08:25:22.231Z,-5.71
2017-12-05T08:26:32.210Z,-5.71
2017-12-05T08:27:41.921Z,-5.73
2017-12-05T08:28:51.905Z,-5.71
2017-12-05T08:30:01.882Z,-5.66
2017-12-05T08:31:11.867Z,-5.6
2017-12-05T08:32:21.580Z,-5.58
2017-12-05T08:33:31.568Z,-5.63
2017-12-05T08:34:41.551Z,-5.55
2017-12-05T08:35:51.531Z,-5.6
2017-12-05T08:37:01.513Z,-5.46
2017-12-05T08:38:10.966Z,-5.52
2017-12-05T08:39:20.979Z,-5.53
2017-12-05T08:40:30.958Z,-5.41
2017-12-05T08:41:40.749Z,-5.34
2017-12-05T08:42:50.733Z,-5.39
2017-12-05T08:44:00.712Z,-5.35
2017-12-05T08:45:10.704Z,-5.23
2017-12-05T08:46:20.688Z,-5.32
2017-12-05T08:47:30.664Z,-5.25
2017-12-05T08:48:40.387Z,-5.23
2017-12-05T08:49:50.362Z,-5.12
2017-12-05T08:51:00.407Z,-5.12
2017-12-05T08:52:10.119Z,-5.16
2017-12-05T08:53:19.563Z,-4.98
2017-12-05T08:54:29.545Z,-5.1
2017-12-05T08:55:39.520Z,-5
2017-12-05T08:56:49.238Z,-5.08
2017-12-05T08:57:58.955Z,-5.01
2017-12-05T08:59:08.935Z,-5.01
2017-12-05T09:00:18.953Z,-5.05
2017-12-05T09:01:28.941Z,-4.88
2017-12-05T09:02:38.919Z,-4.97
2017-12-05T09:03:48.898Z,-4.9
2017-12-05T09:04:58.875Z,-4.81
2017-12-05T09:06:08.321Z,-4.87
2017-12-05T09:07:18.033Z,-4.8
2017-12-05T09:08:28.017Z,-4.73
2017-12-05T09:09:37.732Z,-4.77
2017-12-05T09:10:47.457Z,-4.77
2017-12-05T09:11:57.435Z,-4.71
2017-12-05T09:13:07.424Z,-4.56
2017-12-05T09:14:17.141Z,-4.58
2017-12-05T09:15:27.126Z,-4.55
2017-12-05T09:16:37.107Z,-4.47
2017-12-05T09:17:47.091Z,-4.4
2017-12-05T09:18:58.868Z,-4.44
2017-12-05T09:20:08.850Z,-4.4
2017-12-05T09:21:18.293Z,-4.44
2017-12-05T09:22:28.271Z,-4.47
2017-12-05T09:23:38.253Z,-4.44
2017-12-05T09:24:47.435Z,-4.41
2017-12-05T09:25:56.891Z,-4.33
2017-12-05T09:27:06.610Z,-4.33
2017-12-05T09:28:16.592Z,-4.3
2017-12-05T09:29:26.571Z,-4.26
2017-12-05T09:30:36.286Z,-4.33
2017-12-05T09:31:46.265Z,-4.26
2017-12-05T09:32:55.715Z,-4.24
2017-12-05T09:34:05.497Z,-4.14
2017-12-05T09:35:15.239Z,-4.14
2017-12-05T09:36:24.957Z,-4.22
2017-12-05T09:37:34.673Z,-4.16
2017-12-05T09:38:44.652Z,-4.2
2017-12-05T09:39:54.105Z,-4.14
2017-12-05T09:41:04.082Z,-4.14
2017-12-05T09:42:14.074Z,-4.19
2017-12-05T09:43:24.056Z,-4.13
2017-12-05T09:44:34.033Z,-4.14
2017-12-05T09:45:44.018Z,-4.19
2017-12-05T09:46:53.473Z,-4.08
2017-12-05T09:48:03.475Z,-4.02
2017-12-05T09:49:13.455Z,-4.05
2017-12-05T09:50:22.905Z,-4.08
2017-12-05T09:51:32.628Z,-4.16
2017-12-05T09:52:42.606Z,-4.14
2017-12-05T09:53:52.321Z,-4.19
2017-12-05T09:55:02.301Z,-4.19
2017-12-05T09:56:12.016Z,-4.06
2017-12-05T09:57:21.733Z,-4.04
2017-12-05T09:58:33.776Z,-3.98
2017-12-05T09:59:43.777Z,-4.02
2017-12-05T10:00:53.811Z,-4.06
2017-12-05T10:02:03.534Z,-3.99
2017-12-05T10:03:12.995Z,-3.94
2017-12-05T10:04:22.976Z,-3.99
2017-12-05T10:05:32.955Z,-3.9
2017-12-05T10:06:42.667Z,-3.8
2017-12-05T10:07:52.651Z,-3.8
2017-12-05T10:09:02.630Z,-3.74
2017-12-05T10:10:12.614Z,-3.78
2017-12-05T10:11:22.604Z,-3.95
2017-12-05T10:12:32.587Z,-4.13
2017-12-05T10:13:42.305Z,-4.19
2017-12-05T10:14:52.289Z,-4.2
2017-12-05T10:16:02.296Z,-4.41
2017-12-05T10:17:12.314Z,-4.45
2017-12-05T10:18:22.038Z,-4.53
2017-12-05T10:19:31.844Z,-4.59
2017-12-05T10:20:41.792Z,-4.62
2017-12-05T10:21:51.782Z,-4.63
2017-12-05T10:23:01.496Z,-4.73
2017-12-05T10:24:11.480Z,-4.76
2017-12-05T10:25:21.466Z,-4.77
2017-12-05T10:26:31.188Z,-4.79
2017-12-05T10:27:40.913Z,-4.73
2017-12-05T10:28:50.638Z,-4.63
2017-12-05T10:30:00.619Z,-4.74
2017-12-05T10:31:10.333Z,-4.53
2017-12-05T10:32:20.058Z,-4.58
2017-12-05T10:33:29.778Z,-4.56
2017-12-05T10:34:39.502Z,-4.71
2017-12-05T10:35:49.487Z,-4.58
2017-12-05T10:36:59.466Z,-4.58
2017-12-05T10:38:09.191Z,-4.65
2017-12-05T10:39:18.912Z,-4.71
2017-12-05T10:40:28.628Z,-4.71
2017-12-05T10:41:38.609Z,-4.81
2017-12-05T10:42:48.590Z,-4.81
2017-12-05T10:43:58.573Z,-4.91
2017-12-05T10:45:08.290Z,-4.92
2017-12-05T10:46:18.265Z,-5.01
2017-12-05T10:47:28.251Z,-5.06
2017-12-05T10:48:38.232Z,-5.1
2017-12-05T10:49:47.944Z,-5.09
2017-12-05T10:50:57.666Z,-5.16
2017-12-05T10:52:07.658Z,-5.13
2017-12-05T10:53:17.422Z,-4.95
2017-12-05T10:54:27.408Z,-5.01
2017-12-05T10:55:37.388Z,-5.1
2017-12-05T10:56:47.099Z,-5.1
2017-12-05T10:57:56.811Z,-5.1
2017-12-05T10:59:06.526Z,-5.19
2017-12-05T11:00:16.309Z,-4.98
2017-12-05T11:01:26.034Z,-5
2017-12-05T11:02:35.747Z,-4.95
2017-12-05T11:03:45.723Z,-5.02
2017-12-05T11:04:55.709Z,-5.02
2017-12-05T11:06:05.690Z,-5.09
2017-12-05T11:07:15.672Z,-5.12
2017-12-05T11:08:25.653Z,-5.17
2017-12-05T11:09:35.109Z,-5.28
2017-12-05T11:10:45.090Z,-5.3
2017-12-05T11:11:55.092Z,-5.3
2017-12-05T11:13:05.072Z,-5.23
2017-12-05T11:14:14.792Z,-5.27
2017-12-05T11:15:24.824Z,-5.23
2017-12-05T11:16:34.806Z,-5.21
2017-12-05T11:17:44.790Z,-5.2
2017-12-05T11:18:54.786Z,-5.21
2017-12-05T11:20:06.771Z,-5.23
2017-12-05T11:21:15.689Z,-5.09
2017-12-05T11:22:25.669Z,-5.09
2017-12-05T11:23:35.665Z,-5.12
2017-12-05T11:24:45.378Z,-4.91
2017-12-05T11:25:54.566Z,-4.87
2017-12-05T11:27:04.546Z,-4.84
2017-12-05T11:28:14.258Z,-4.95
2017-12-05T11:29:23.971Z,-4.83
2017-12-05T11:30:33.949Z,-4.61
2017-12-05T11:31:43.925Z,-4.76
2017-12-05T11:32:53.636Z,-4.76
2017-12-05T11:34:03.084Z,-4.77
2017-12-05T11:35:12.532Z,-4.87
2017-12-05T11:36:22.515Z,-4.91
2017-12-05T11:37:32.499Z,-4.84
2017-12-05T11:38:42.490Z,-4.88
2017-12-05T11:39:52.480Z,-4.63
2017-12-05T11:41:02.467Z,-4.55
2017-12-05T11:42:12.180Z,-4.38
2017-12-05T11:43:22.164Z,-4.16
2017-12-05T11:44:31.616Z,-4.23
2017-12-05T11:45:41.607Z,-4.04
2017-12-05T11:46:51.324Z,-3.96
2017-12-05T11:48:01.317Z,-3.9
2017-12-05T11:49:11.313Z,-3.84
2017-12-05T11:50:21.036Z,-3.77
2017-12-05T11:51:30.752Z,-3.68
2017-12-05T11:52:40.214Z,-3.62
2017-12-05T11:53:49.934Z,-3.56
2017-12-05T11:54:59.916Z,-3.47
2017-12-05T11:56:09.644Z,-3.37
2017-12-05T11:57:19.624Z,-3.38
2017-12-05T11:58:29.608Z,-3.38
2017-12-05T11:59:39.323Z,-3.4
2017-12-05T12:00:49.365Z,-3.38
2017-12-05T12:01:59.349Z,-3.41
2017-12-05T12:03:09.335Z,-3.43
2017-12-05T12:04:19.318Z,-3.36
2017-12-05T12:05:29.304Z,-3.38
2017-12-05T12:06:39.325Z,-3.41
2017-12-05T12:07:49.305Z,-3.38
2017-12-05T12:08:59.290Z,-3.26
2017-12-05T12:10:09.012Z,-3.27
2017-12-05T12:11:18.991Z,-3.3
2017-12-05T12:12:28.712Z,-3.19
2017-12-05T12:13:38.700Z,-3.14
2017-12-05T12:14:48.679Z,-3.19
2017-12-05T12:15:58.670Z,-3.15
2017-12-05T12:17:08.658Z,-3.25
2017-12-05T12:18:18.385Z,-3.27
2017-12-05T12:19:28.370Z,-3.25
2017-12-05T12:20:38.088Z,-3.22
2017-12-05T12:21:48.072Z,-3.38
2017-12-05T12:22:58.059Z,-3.37
2017-12-05T12:24:08.037Z,-3.4
2017-12-05T12:25:18.022Z,-3.44
2017-12-05T12:26:27.468Z,-3.44
2017-12-05T12:27:37.450Z,-3.5
2017-12-05T12:28:47.440Z,-3.51
2017-12-05T12:29:57.206Z,-3.62
2017-12-05T12:31:06.926Z,-3.62
2017-12-05T12:32:16.904Z,-3.69
2017-12-05T12:33:26.882Z,-3.68
2017-12-05T12:34:36.898Z,-3.8
2017-12-05T12:35:46.902Z,-3.81
2017-12-05T12:36:56.894Z,-3.85
2017-12-05T12:38:06.879Z,-3.88
2017-12-05T12:39:16.875Z,-3.91
2017-12-05T12:40:26.866Z,-3.84
2017-12-05T12:41:38.854Z,-3.81
2017-12-05T12:42:48.842Z,-3.88
2017-12-05T12:43:58.556Z,-3.84
2017-12-05T12:45:08.538Z,-3.9
2017-12-05T12:46:18.519Z,-3.98
2017-12-05T12:47:29.161Z,-4.04
2017-12-05T12:48:38.882Z,-4.01
2017-12-05T12:49:48.599Z,-4.06
2017-12-05T12:50:58.580Z,-4.12
2017-12-05T12:52:08.561Z,-4.02
2017-12-05T12:53:18.580Z,-4.16
2017-12-05T12:54:28.562Z,-4.14
2017-12-05T12:55:38.541Z,-4.08
2017-12-05T12:56:48.527Z,-4.04
2017-12-05T12:57:58.511Z,-4.04
2017-12-05T12:59:08.492Z,-4.06
2017-12-05T13:00:18.210Z,-4.08
2017-12-05T13:01:27.659Z,-4.09
2017-12-05T13:02:37.111Z,-3.96
2017-12-05T13:03:47.101Z,-3.94
2017-12-05T13:04:56.825Z,-4.02
2017-12-05T13:06:06.273Z,-4.06
2017-12-05T13:07:15.987Z,-4.05
2017-12-05T13:08:25.700Z,-4.05
2017-12-05T13:09:35.157Z,-4.04
2017-12-05T13:10:44.868Z,-4.02
2017-12-05T13:11:54.846Z,-4.04
2017-12-05T13:13:04.295Z,-3.99
2017-12-05T13:14:13.750Z,-3.96
2017-12-05T13:15:23.728Z,-4.05
2017-12-05T13:16:33.450Z,-4.02
2017-12-05T13:17:43.430Z,-4.06
2017-12-05T13:18:53.412Z,-3.94
2017-12-05T13:20:03.393Z,-3.94
2017-12-05T13:21:13.112Z,-3.85
2017-12-05T13:22:22.828Z,-3.94
2017-12-05T13:23:32.544Z,-3.88
2017-12-05T13:24:42.527Z,-3.88
2017-12-05T13:25:52.513Z,-3.9
2017-12-05T13:27:02.500Z,-3.88
2017-12-05T13:28:12.476Z,-3.95
2017-12-05T13:29:22.456Z,-3.88
2017-12-05T13:30:32.184Z,-3.88
2017-12-05T13:31:41.635Z,-3.96
2017-12-05T13:32:51.615Z,-3.87
2017-12-05T13:34:01.609Z,-3.91
2017-12-05T13:35:11.600Z,-3.91
2017-12-05T13:36:21.583Z,-3.81
2017-12-05T13:37:31.562Z,-3.78
2017-12-05T13:38:41.281Z,-3.83
2017-12-05T13:39:51.273Z,-3.71
2017-12-05T13:41:01.256Z,-3.78
2017-12-05T13:42:11.256Z,-3.69
2017-12-05T13:43:21.252Z,-3.75
2017-12-05T13:44:30.705Z,-3.65
2017-12-05T13:45:40.423Z,-3.62
2017-12-05T13:46:50.403Z,-3.69
2017-12-05T13:48:00.390Z,-3.53
2017-12-05T13:49:10.109Z,-3.62
2017-12-05T13:50:19.826Z,-3.58
2017-12-05T13:51:29.009Z,-3.55
2017-12-05T13:52:38.778Z,-3.47
2017-12-05T13:53:48.759Z,-3.46
2017-12-05T13:54:58.483Z,-3.46
2017-12-05T13:56:08.229Z,-3.4
2017-12-05T13:57:17.739Z,-3.44
2017-12-05T13:58:27.720Z,-3.4
2017-12-05T13:59:37.189Z,-3.41
2017-12-05T14:00:47.171Z,-3.33
2017-12-05T14:01:57.154Z,-3.41
2017-12-05T14:03:06.870Z,-3.43
2017-12-05T14:04:16.593Z,-3.43
2017-12-05T14:05:26.602Z,-3.38
2017-12-05T14:06:36.319Z,-3.37
2017-12-05T14:07:46.309Z,-3.38
2017-12-05T14:08:56.294Z,-3.38
2017-12-05T14:10:06.017Z,-3.4
2017-12-05T14:11:16.008Z,-3.3
2017-12-05T14:12:25.991Z,-3.22
2017-12-05T14:13:35.444Z,-3.3
2017-12-05T14:14:45.440Z,-3.22
2017-12-05T14:15:55.157Z,-3.27
2017-12-05T14:17:04.873Z,-3.25
2017-12-05T14:18:14.855Z,-3.12
2017-12-05T14:19:24.892Z,-3.08
2017-12-05T14:20:34.361Z,-3.11
2017-12-05T14:21:43.818Z,-3.11
2017-12-05T14:22:53.273Z,-3.17
2017-12-05T14:24:03.262Z,-3.15
2017-12-05T14:25:12.987Z,-3.07
2017-12-05T14:26:22.967Z,-3.09
2017-12-05T14:27:32.948Z,-3.07
2017-12-05T14:28:42.941Z,-3.19
2017-12-05T14:29:52.927Z,-3.07
2017-12-05T14:31:02.921Z,-3.01
2017-12-05T14:32:12.910Z,-3.11
2017-12-05T14:33:22.651Z,-3.07
2017-12-05T14:34:32.631Z,-2.98
2017-12-05T14:35:42.623Z,-2.99
2017-12-05T14:36:52.347Z,-2.94
2017-12-05T14:38:02.062Z,-2.9
2017-12-05T14:39:12.043Z,-2.83
2017-12-05T14:40:21.495Z,-2.89
2017-12-05T14:41:31.211Z,-2.84
2017-12-05T14:42:40.934Z,-2.81
2017-12-05T14:43:53.769Z,-2.73
2017-12-05T14:45:03.750Z,-2.75
2017-12-05T14:46:13.470Z,-2.69
2017-12-05T14:47:23.453Z,-2.75
2017-12-05T14:48:33.173Z,-2.73
2017-12-05T14:49:42.889Z,-2.73
2017-12-05T14:50:52.870Z,-2.69
2017-12-05T14:52:02.588Z,-2.78
2017-12-05T14:53:12.582Z,-2.73
2017-12-05T14:54:22.580Z,-2.78
2017-12-05T14:55:32.300Z,-2.8
2017-12-05T14:56:42.290Z,-2.75
2017-12-05T14:57:52.269Z,-2.86
2017-12-05T14:59:02.044Z,-2.8
2017-12-05T15:00:12.036Z,-2.69
2017-12-05T15:01:22.021Z,-2.73
2017-12-05T15:02:31.474Z,-2.65
2017-12-05T15:03:41.262Z,-2.58
2017-12-05T15:04:51.257Z,-2.62
2017-12-05T15:06:01.240Z,-2.52